Sunderland, Vermont
Current Conditions -  °F | °C
As of 9:54 AM on Monday 24 Nov 2014 (Local Time) from KDDH Reporting Station
Overcast Overcast  
Wind Chill: 17°   Ceiling: 2300
Heat Index: 17°   Visibility: 10mi
Dew Point: 14°   Wind: 10mph
Humidity: 84%   Direction: 170°S
Pressure: 29.61"   Gusts: NA
Location:  43.0661°N, 73.1407°W
Report Text: KDDH 241454Z AUTO 17009KT 10SM BKN023 OVC028 17/14 A2961 RMK AO2 RAE35 SLP027 P0001 60002 T01670139 56004
Loading
Personal Weather Stations






























Interactive Weather Map New forecast layout! Learn more

10-Day Weather Forecast

Advertisements
Track Severe Weather on mobile